Seward, Illinois
Current Conditions -  °F | °C
As of 8:55 AM on Wednesday 26 Nov 2014 (Local Time) from KFEP Reporting Station
Haze Haze  
Wind Chill:   Ceiling: 300
Heat Index: 17°   Visibility: 2mi
Dew Point: 15°   Wind: 6mph
Humidity: 92%   Direction: 100°E
Pressure: 30.14"   Gusts: NA
Location:  42.24°N, 89.36°W
Report Text: KFEP 261455Z AUTO 10005KT 2SM BR OVC003 M08/M09 A3014 RMK AO2 T10811092
Loading
Personal Weather Stations






























Interactive Weather Map New forecast layout! Learn more

10-Day Weather Forecast

Advertisements
Track Severe Weather on mobile